createdAt,value
2023-05-24T00:00:47.593Z,0.00
2023-05-24T00:01:47.632Z,0.00
2023-05-24T00:02:47.705Z,0.00
2023-05-24T00:03:47.777Z,0.00
2023-05-24T00:04:47.760Z,0.00
2023-05-24T00:05:48.095Z,0.00
2023-05-24T00:06:47.788Z,0.00
2023-05-24T00:07:47.819Z,0.00
2023-05-24T00:08:47.849Z,0.00
2023-05-24T00:09:47.879Z,0.00
2023-05-24T00:10:47.921Z,0.00
2023-05-24T00:11:47.958Z,0.00
2023-05-24T00:12:48.278Z,0.00
2023-05-24T00:14:48.057Z,0.00
2023-05-24T00:15:48.075Z,0.00
2023-05-24T00:17:48.156Z,0.00
2023-05-24T00:18:48.192Z,0.00
2023-05-24T00:19:48.538Z,0.00
2023-05-24T00:20:48.505Z,0.00
2023-05-24T00:22:48.327Z,0.00
2023-05-24T00:23:48.341Z,0.00
2023-05-24T00:24:48.364Z,0.00
2023-05-24T00:25:48.401Z,0.00
2023-05-24T00:26:48.727Z,0.00
2023-05-24T00:27:48.461Z,0.00
2023-05-24T00:28:48.494Z,0.00
2023-05-24T00:29:48.563Z,0.00
2023-05-24T00:30:48.577Z,0.00
2023-05-24T00:31:48.679Z,0.00
2023-05-24T00:32:48.714Z,0.00
2023-05-24T00:33:48.968Z,0.00
2023-05-24T00:34:48.692Z,0.00
2023-05-24T00:35:48.732Z,0.00
2023-05-24T00:36:48.757Z,0.00
2023-05-24T00:37:48.786Z,0.00
2023-05-24T00:38:48.840Z,0.00
2023-05-24T00:39:48.875Z,0.00
2023-05-24T00:40:49.182Z,0.00
2023-05-24T00:41:48.920Z,0.00
2023-05-24T00:42:48.950Z,0.00
2023-05-24T00:43:48.977Z,0.00
2023-05-24T00:44:49.036Z,0.00
2023-05-24T00:45:49.178Z,0.00
2023-05-24T00:46:49.079Z,0.00
2023-05-24T00:47:49.795Z,0.00
2023-05-24T00:48:49.159Z,0.00
2023-05-24T00:49:49.195Z,0.00
2023-05-24T00:50:49.229Z,0.00
2023-05-24T00:51:49.243Z,0.00
2023-05-24T00:52:49.285Z,0.00
2023-05-24T00:53:49.299Z,0.00
2023-05-24T00:54:49.656Z,0.00
2023-05-24T00:55:49.367Z,0.00
2023-05-24T00:56:49.396Z,0.00
2023-05-24T00:57:49.429Z,0.00
2023-05-24T00:58:49.512Z,0.00
2023-05-24T00:59:49.502Z,0.00
2023-05-24T01:01:49.943Z,0.00
2023-05-24T01:02:49.765Z,0.00
2023-05-24T01:03:49.757Z,0.00
2023-05-24T01:04:49.656Z,0.00
2023-05-24T01:05:49.688Z,0.00
2023-05-24T01:06:49.730Z,0.00
2023-05-24T01:07:49.761Z,0.00
2023-05-24T01:08:50.090Z,0.00
2023-05-24T01:09:49.817Z,0.00
2023-05-24T01:10:49.887Z,0.00
2023-05-24T01:11:49.885Z,0.00
2023-05-24T01:12:49.949Z,0.00
2023-05-24T01:13:49.952Z,0.00
2023-05-24T01:14:50.283Z,0.00
2023-05-24T01:15:50.086Z,0.00
2023-05-24T01:16:50.053Z,0.00
2023-05-24T01:17:50.149Z,0.00
2023-05-24T01:18:50.119Z,0.00
2023-05-24T01:19:50.209Z,0.00
2023-05-24T01:20:50.504Z,0.00
2023-05-24T01:21:50.203Z,0.00
2023-05-24T01:22:50.240Z,0.00
2023-05-24T01:23:50.386Z,0.00
2023-05-24T01:24:50.303Z,0.00
2023-05-24T01:25:50.337Z,0.00
2023-05-24T01:26:50.721Z,0.00
2023-05-24T01:27:50.452Z,0.00
2023-05-24T01:28:50.428Z,0.00
2023-05-24T01:29:50.511Z,0.00
2023-05-24T01:31:50.577Z,0.00
2023-05-24T01:32:50.598Z,0.00
2023-05-24T01:33:50.884Z,0.00
2023-05-24T01:34:50.631Z,0.00
2023-05-24T01:43:59.605Z,0.00
2023-05-24T01:44:59.575Z,0.00
2023-05-24T01:45:59.680Z,0.00
2023-05-24T01:46:59.656Z,0.00
2023-05-24T01:47:59.806Z,0.00
2023-05-24T01:48:59.668Z,0.00
2023-05-24T01:50:00.012Z,0.00
2023-05-24T01:51:59.927Z,0.00
2023-05-24T01:52:59.797Z,0.00
2023-05-24T01:54:59.858Z,0.00
2023-05-24T01:56:00.192Z,0.00
2023-05-24T01:56:59.922Z,0.00
2023-05-24T01:57:59.951Z,0.00
2023-05-24T02:00:00.043Z,0.00
2023-05-24T02:01:00.102Z,0.00
2023-05-24T02:02:00.423Z,0.00
2023-05-24T02:03:00.272Z,0.00
2023-05-24T02:04:00.191Z,0.00
2023-05-24T02:05:00.182Z,0.00
2023-05-24T02:06:00.204Z,0.00
2023-05-24T02:07:00.234Z,0.00
2023-05-24T02:08:00.264Z,0.00
2023-05-24T02:09:00.619Z,0.00
2023-05-24T02:10:00.344Z,0.00
2023-05-24T02:11:00.371Z,0.00
2023-05-24T02:12:00.396Z,0.00
2023-05-24T02:13:00.424Z,0.00
2023-05-24T02:14:00.458Z,0.00
2023-05-24T02:15:00.556Z,0.00
2023-05-24T02:16:00.863Z,0.00
2023-05-24T02:18:00.600Z,0.00
2023-05-24T02:19:00.621Z,0.00
2023-05-24T02:20:00.740Z,0.00
2023-05-24T02:21:00.690Z,0.00
2023-05-24T02:22:00.730Z,0.00
2023-05-24T02:23:01.052Z,0.00
2023-05-24T02:24:00.783Z,0.00
2023-05-24T02:25:00.809Z,0.00
2023-05-24T02:26:00.835Z,0.00
2023-05-24T02:27:00.872Z,0.00
2023-05-24T02:28:00.901Z,0.00
2023-05-24T02:30:01.218Z,0.00
2023-05-24T02:31:01.042Z,0.00
2023-05-24T02:33:01.113Z,0.00
2023-05-24T02:34:01.124Z,0.00
2023-05-24T02:35:01.130Z,0.00
2023-05-24T02:36:01.157Z,0.00
2023-05-24T02:37:01.487Z,0.00
2023-05-24T02:38:01.232Z,0.00
2023-05-24T02:39:01.317Z,0.00
2023-05-24T02:40:01.288Z,0.00
2023-05-24T02:41:01.313Z,0.00
2023-05-24T02:42:01.346Z,0.00
2023-05-24T02:43:01.373Z,0.00
2023-05-24T02:44:01.764Z,0.00
2023-05-24T02:45:01.452Z,0.00
2023-05-24T02:46:01.528Z,0.00
2023-05-24T02:48:01.617Z,0.00
2023-05-24T02:49:01.594Z,0.00
2023-05-24T02:50:01.602Z,0.00
2023-05-24T02:51:02.027Z,0.00
2023-05-24T02:52:01.659Z,0.00
2023-05-24T02:53:01.703Z,0.00
2023-05-24T02:54:01.733Z,0.00
2023-05-24T02:55:01.779Z,0.00
2023-05-24T02:56:01.786Z,0.00
2023-05-24T02:58:02.152Z,0.00
2023-05-24T02:59:01.879Z,0.00
2023-05-24T03:00:01.912Z,0.00
2023-05-24T03:01:01.943Z,4.00
2023-05-24T03:03:02.147Z,4.00
2023-05-24T03:04:02.200Z,0.00
2023-05-24T03:05:02.402Z,4.00
2023-05-24T03:06:02.100Z,4.00
2023-05-24T03:07:02.136Z,4.00
2023-05-24T03:08:02.169Z,8.00
2023-05-24T03:09:02.203Z,4.00
2023-05-24T03:10:02.269Z,8.00
2023-05-24T03:11:02.284Z,8.00
2023-05-24T03:12:02.590Z,8.00
2023-05-24T03:13:02.344Z,8.00
2023-05-24T03:14:02.359Z,12.00
2023-05-24T03:15:02.385Z,12.00
2023-05-24T03:16:02.452Z,16.00
2023-05-24T03:17:02.499Z,20.00
2023-05-24T03:18:02.534Z,20.00
2023-05-24T03:19:02.826Z,24.00
2023-05-24T03:20:02.603Z,24.00
2023-05-24T03:22:02.630Z,28.00
2023-05-24T03:23:02.638Z,32.00
2023-05-24T03:24:02.774Z,40.00
2023-05-24T03:25:03.005Z,40.00
2023-05-24T03:26:02.744Z,44.00
2023-05-24T03:27:02.767Z,52.00
2023-05-24T03:28:02.814Z,56.00
2023-05-24T03:29:02.841Z,60.00
2023-05-24T03:30:02.862Z,64.00
2023-05-24T03:31:03.295Z,72.00
2023-05-24T03:32:03.073Z,76.00
2023-05-24T03:33:03.033Z,84.00
2023-05-24T03:34:03.014Z,92.00
2023-05-24T03:35:03.037Z,96.00
2023-05-24T03:36:03.068Z,104.00
2023-05-24T03:37:03.396Z,112.00
2023-05-24T03:39:03.171Z,132.00
2023-05-24T03:40:03.181Z,140.00
2023-05-24T03:41:03.211Z,152.00
2023-05-24T03:42:03.243Z,164.00
2023-05-24T03:43:04.623Z,172.00
2023-05-24T03:44:03.615Z,184.00
2023-05-24T03:45:03.333Z,196.00
2023-05-24T03:46:03.392Z,208.00
2023-05-24T03:47:03.399Z,220.00
2023-05-24T03:48:03.497Z,232.00
2023-05-24T03:49:03.523Z,248.00
2023-05-24T03:50:03.500Z,260.00
2023-05-24T03:52:03.864Z,288.00
2023-05-24T03:54:03.622Z,312.00
2023-05-24T03:55:03.687Z,328.00
2023-05-24T03:56:03.683Z,340.00
2023-05-24T03:57:03.709Z,356.00
2023-05-24T03:58:04.054Z,368.00
2023-05-24T03:59:03.792Z,380.00
2023-05-24T04:00:03.821Z,400.00
2023-05-24T04:01:03.846Z,412.00
2023-05-24T04:02:03.908Z,428.00
2023-05-24T04:03:03.974Z,444.00
2023-05-24T04:04:03.969Z,460.00
2023-05-24T04:05:04.264Z,468.00
2023-05-24T04:06:04.003Z,484.00
2023-05-24T04:07:04.024Z,500.00
2023-05-24T04:08:04.053Z,512.00
2023-05-24T04:09:04.084Z,532.00
2023-05-24T04:10:04.127Z,544.00
2023-05-24T04:11:04.172Z,560.00
2023-05-24T04:12:04.484Z,572.00
2023-05-24T04:13:04.212Z,584.00
2023-05-24T04:14:04.249Z,600.00
2023-05-24T04:15:04.270Z,616.00
2023-05-24T04:16:04.310Z,632.00
2023-05-24T04:17:04.523Z,640.00
2023-05-24T04:18:04.428Z,656.00
2023-05-24T04:19:04.735Z,672.00
2023-05-24T04:20:04.451Z,684.00
2023-05-24T04:21:04.463Z,696.00
2023-05-24T04:22:04.499Z,708.00
2023-05-24T04:23:04.533Z,720.00
2023-05-24T04:24:04.565Z,736.00
2023-05-24T04:25:04.645Z,752.00
2023-05-24T04:26:04.933Z,764.00
2023-05-24T04:27:04.673Z,776.00
2023-05-24T04:28:04.790Z,792.00
2023-05-24T04:29:04.722Z,804.00
2023-05-24T04:30:04.784Z,812.00
2023-05-24T04:31:04.806Z,828.00
2023-05-24T04:32:04.817Z,840.00
2023-05-24T04:33:05.202Z,852.00
2023-05-24T04:34:04.885Z,864.00
2023-05-24T04:35:04.900Z,876.00
2023-05-24T04:36:04.943Z,892.00
2023-05-24T04:37:05.003Z,904.00
2023-05-24T04:38:05.007Z,916.00
2023-05-24T04:39:05.145Z,932.00
2023-05-24T04:41:05.409Z,956.00
2023-05-24T04:42:05.128Z,968.00
2023-05-24T04:43:05.177Z,984.00
2023-05-24T04:44:05.225Z,996.00
2023-05-24T04:45:05.220Z,1008.00
2023-05-24T04:46:06.848Z,1020.00
2023-05-24T04:47:05.434Z,1036.00
2023-05-24T04:48:05.676Z,1044.00
2023-05-24T04:49:05.362Z,1060.00
2023-05-24T04:50:05.383Z,1072.00
2023-05-24T04:51:05.416Z,1080.00
2023-05-24T04:52:05.462Z,1092.00
2023-05-24T04:53:05.472Z,1104.00
2023-05-24T04:54:05.607Z,1116.00
2023-05-24T04:55:05.834Z,1128.00
2023-05-24T04:56:05.588Z,1140.00
2023-05-24T04:57:05.703Z,1156.00
2023-05-24T04:59:05.682Z,1180.00
2023-05-24T05:00:05.697Z,1188.00
2023-05-24T05:01:05.819Z,1200.00
2023-05-24T05:02:06.098Z,1212.00
2023-05-24T05:03:05.907Z,1220.00
2023-05-24T05:04:05.934Z,1236.00
2023-05-24T05:05:05.874Z,1244.00
2023-05-24T05:06:05.888Z,1256.00
2023-05-24T05:07:05.930Z,1260.00
2023-05-24T05:08:05.954Z,1276.00
2023-05-24T05:10:06.265Z,1296.00
2023-05-24T05:11:06.194Z,1308.00
2023-05-24T05:12:06.067Z,1320.00
2023-05-24T05:13:06.106Z,1332.00
2023-05-24T05:14:06.228Z,1336.00
2023-05-24T05:15:06.186Z,1348.00
2023-05-24T05:16:06.235Z,1352.00
2023-05-24T05:17:06.493Z,1356.00
2023-05-24T05:18:06.310Z,1376.00
2023-05-24T05:20:06.341Z,1396.00
2023-05-24T05:21:06.361Z,1400.00
2023-05-24T05:22:06.384Z,1412.00
2023-05-24T05:23:06.414Z,1424.00
2023-05-24T05:24:06.762Z,1432.00
2023-05-24T05:25:06.484Z,1444.00
2023-05-24T05:26:06.510Z,1452.00
2023-05-24T05:27:06.532Z,1464.00
2023-05-24T05:28:06.581Z,1468.00
2023-05-24T05:29:06.630Z,1472.00
2023-05-24T05:30:06.633Z,1480.00
2023-05-24T05:31:06.986Z,1492.00
2023-05-24T05:33:06.808Z,1512.00
2023-05-24T05:34:06.759Z,1520.00
2023-05-24T05:35:06.796Z,1532.00
2023-05-24T05:36:06.840Z,1544.00
2023-05-24T05:37:06.858Z,1552.00
2023-05-24T05:38:07.186Z,1560.00
2023-05-24T05:39:06.921Z,1568.00
2023-05-24T05:40:06.953Z,1572.00
2023-05-24T05:41:07.137Z,1580.00
2023-05-24T05:43:07.043Z,1628.00
2023-05-24T05:44:07.084Z,1700.00
2023-05-24T05:45:07.409Z,1776.00
2023-05-24T05:46:07.197Z,1764.00
2023-05-24T05:47:07.192Z,1668.00
2023-05-24T05:48:07.267Z,1632.00
2023-05-24T05:49:07.242Z,1636.00
2023-05-24T05:50:07.272Z,1644.00
2023-05-24T05:51:07.297Z,1652.00
2023-05-24T05:52:07.658Z,1656.00
2023-05-24T05:53:07.365Z,1660.00
2023-05-24T05:54:07.392Z,1660.00
2023-05-24T05:55:07.427Z,1668.00
2023-05-24T05:57:07.489Z,1680.00
2023-05-24T05:58:07.520Z,1696.00
2023-05-24T05:59:07.810Z,1704.00
2023-05-24T06:00:07.586Z,1708.00
2023-05-24T06:01:07.617Z,1720.00
2023-05-24T06:03:07.832Z,1732.00
2023-05-24T06:04:07.855Z,1728.00
2023-05-24T06:05:07.739Z,1736.00
2023-05-24T06:06:08.016Z,1740.00
2023-05-24T06:07:07.805Z,1748.00
2023-05-24T06:08:07.847Z,1752.00
2023-05-24T06:10:07.941Z,1756.00
2023-05-24T06:11:07.941Z,1756.00
2023-05-24T06:13:07.999Z,1764.00
2023-05-24T06:14:08.021Z,1788.00
2023-05-24T06:15:08.069Z,1780.00
2023-05-24T06:16:08.123Z,1740.00
2023-05-24T06:17:08.111Z,1788.00
2023-05-24T06:18:08.452Z,1708.00
2023-05-24T06:19:08.297Z,1844.00
2023-05-24T06:20:08.257Z,1928.00
2023-05-24T06:21:08.242Z,1956.00
2023-05-24T06:22:08.274Z,2236.00
2023-05-24T06:23:08.306Z,2440.00
2023-05-24T06:24:08.643Z,2640.00
2023-05-24T06:25:08.371Z,2828.00
2023-05-24T06:26:08.400Z,2728.00
2023-05-24T06:27:08.434Z,2160.00
2023-05-24T06:28:08.459Z,1908.00
2023-05-24T06:30:08.892Z,1836.00
2023-05-24T06:31:08.630Z,1780.00
2023-05-24T06:32:08.587Z,1800.00
2023-05-24T06:33:08.620Z,1840.00
2023-05-24T06:34:08.653Z,2016.00
2023-05-24T06:35:08.721Z,2128.00
2023-05-24T06:36:08.720Z,2124.00
2023-05-24T06:37:09.054Z,2192.00
2023-05-24T06:38:08.792Z,2212.00
2023-05-24T06:39:08.824Z,2172.00
2023-05-24T06:40:08.852Z,2048.00
2023-05-24T06:41:08.879Z,1916.00
2023-05-24T06:42:08.913Z,1908.00
2023-05-24T06:43:08.944Z,1924.00
2023-05-24T06:44:09.284Z,2088.00
2023-05-24T06:45:09.009Z,2240.00
2023-05-24T06:46:09.043Z,2240.00
2023-05-24T06:47:09.177Z,2572.00
2023-05-24T06:48:09.216Z,3016.00
2023-05-24T06:49:09.166Z,3232.00
2023-05-24T06:50:09.167Z,3212.00
2023-05-24T06:51:09.520Z,3104.00
2023-05-24T06:52:09.224Z,2908.00
2023-05-24T06:53:09.255Z,2568.00
2023-05-24T06:54:09.294Z,2300.00
2023-05-24T06:55:09.318Z,2292.00
2023-05-24T06:56:09.352Z,2576.00
2023-05-24T06:57:09.390Z,3036.00
2023-05-24T06:58:09.675Z,2988.00
2023-05-24T06:59:09.448Z,2928.00
2023-05-24T07:00:09.482Z,2616.00
2023-05-24T07:01:09.551Z,2236.00
2023-05-24T07:02:09.547Z,2084.00
2023-05-24T07:03:09.649Z,2168.00
2023-05-24T07:04:09.632Z,2160.00
2023-05-24T07:06:09.969Z,2232.00
2023-05-24T07:07:09.749Z,2268.00
2023-05-24T07:08:09.733Z,2348.00
2023-05-24T07:09:09.772Z,2496.00
2023-05-24T07:10:09.803Z,2720.00
2023-05-24T07:11:09.865Z,3036.00
2023-05-24T07:12:09.870Z,2872.00
2023-05-24T07:13:10.190Z,2888.00
2023-05-24T07:14:09.919Z,2964.00
2023-05-24T07:15:10.023Z,2812.00
2023-05-24T07:16:09.992Z,2632.00
2023-05-24T07:17:10.092Z,2484.00
2023-05-24T07:19:10.391Z,2304.00
2023-05-24T07:20:10.173Z,2316.00
2023-05-24T07:21:10.136Z,2528.00
2023-05-24T07:22:10.174Z,2468.00
2023-05-24T07:23:10.262Z,2388.00
2023-05-24T07:24:10.265Z,2608.00
2023-05-24T07:25:10.252Z,2744.00
2023-05-24T07:26:10.588Z,2588.00
2023-05-24T07:27:10.336Z,2640.00
2023-05-24T07:28:10.357Z,2644.00
2023-05-24T07:30:23.701Z,2464.00
2023-05-24T07:31:10.448Z,2612.00
2023-05-24T07:32:10.820Z,2416.00
2023-05-24T07:33:10.561Z,2328.00
2023-05-24T07:34:10.556Z,2360.00
2023-05-24T07:35:10.567Z,2340.00
2023-05-24T07:36:10.607Z,2584.00
2023-05-24T07:38:10.961Z,3520.00
2023-05-24T07:40:10.769Z,2668.00
2023-05-24T07:41:10.760Z,2752.00
2023-05-24T07:42:10.786Z,3064.00
2023-05-24T07:46:11.231Z,4356.00
2023-05-24T07:47:10.946Z,4564.00
2023-05-24T07:48:11.020Z,4664.00
2023-05-24T07:49:11.024Z,4344.00
2023-05-24T07:50:11.040Z,4204.00
2023-05-24T07:51:11.126Z,4112.00
2023-05-24T07:52:11.409Z,3908.00
2023-05-24T07:53:11.139Z,4028.00
2023-05-24T07:54:11.177Z,4336.00
2023-05-24T07:55:11.217Z,4220.00
2023-05-24T07:56:11.355Z,4044.00
2023-05-24T07:57:11.271Z,3764.00
2023-05-24T07:58:11.294Z,3368.00
2023-05-24T07:59:11.326Z,3172.00
2023-05-24T08:00:11.378Z,3196.00
2023-05-24T08:01:11.421Z,3312.00
2023-05-24T08:02:11.428Z,3148.00
2023-05-24T08:03:11.498Z,3252.00
2023-05-24T08:04:11.757Z,3080.00
2023-05-24T08:05:11.519Z,3372.00
2023-05-24T08:06:11.552Z,3152.00
2023-05-24T08:07:11.658Z,3128.00
2023-05-24T08:08:11.645Z,3164.00
2023-05-24T08:09:11.647Z,3244.00
2023-05-24T08:11:12.065Z,4336.00
2023-05-24T08:12:12.378Z,4296.00
2023-05-24T08:13:11.777Z,4280.00
2023-05-24T08:14:11.822Z,4100.00
2023-05-24T08:16:11.890Z,3424.00
2023-05-24T08:17:11.917Z,3624.00
2023-05-24T08:19:12.268Z,2908.00
2023-05-24T08:20:12.050Z,2952.00
2023-05-24T08:21:12.040Z,3220.00
2023-05-24T08:22:12.072Z,3384.00
2023-05-24T08:23:12.103Z,3580.00
2023-05-24T08:24:12.140Z,3644.00
2023-05-24T08:26:12.448Z,3968.00
2023-05-24T08:27:12.238Z,4520.00
2023-05-24T08:28:12.457Z,4428.00
2023-05-24T08:29:12.292Z,4308.00
2023-05-24T08:30:12.360Z,4208.00
2023-05-24T08:31:12.430Z,4436.00
2023-05-24T08:32:12.633Z,4196.00
2023-05-24T08:33:12.838Z,4016.00
2023-05-24T08:34:12.486Z,3652.00
2023-05-24T08:35:20.812Z,2828.00
2023-05-24T08:36:12.520Z,2532.00
2023-05-24T08:37:14.176Z,2392.00
2023-05-24T08:38:12.601Z,2160.00
2023-05-24T08:39:12.634Z,1972.00
2023-05-24T08:40:15.948Z,2092.00
2023-05-24T08:41:12.684Z,2184.00
2023-05-24T08:42:12.815Z,2196.00
2023-05-24T08:43:12.742Z,2224.00
2023-05-24T08:44:12.809Z,2436.00
2023-05-24T08:45:12.868Z,2780.00
2023-05-24T08:46:12.876Z,3320.00
2023-05-24T08:47:13.195Z,3784.00
2023-05-24T08:48:12.935Z,4116.00
2023-05-24T08:50:13.019Z,4976.00
2023-05-24T08:51:13.095Z,5136.00
2023-05-24T08:52:13.039Z,5272.00
2023-05-24T08:54:13.400Z,5044.00
2023-05-24T08:55:13.123Z,4764.00
2023-05-24T08:56:13.157Z,4552.00
2023-05-24T08:57:13.183Z,4252.00
2023-05-24T08:58:13.222Z,3960.00
2023-05-24T08:59:13.253Z,3736.00
2023-05-24T09:00:13.369Z,3792.00
2023-05-24T09:01:13.636Z,4156.00
2023-05-24T09:02:13.562Z,4960.00
2023-05-24T09:03:13.449Z,5796.00
2023-05-24T09:06:13.475Z,6132.00
2023-05-24T09:07:13.493Z,6068.00
2023-05-24T09:08:13.850Z,5364.00
2023-05-24T09:09:13.553Z,4792.00
2023-05-24T09:10:13.587Z,4268.00
2023-05-24T09:11:13.625Z,4228.00
2023-05-24T09:12:19.125Z,4524.00
2023-05-24T09:13:13.680Z,4596.00
2023-05-24T09:14:13.715Z,4580.00
2023-05-24T09:15:14.035Z,4500.00
2023-05-24T09:16:13.807Z,4540.00
2023-05-24T09:17:13.807Z,4704.00
2023-05-24T09:18:13.866Z,5056.00
2023-05-24T09:19:13.850Z,5300.00
2023-05-24T09:20:13.996Z,5432.00
2023-05-24T09:22:14.254Z,6068.00
2023-05-24T09:23:13.988Z,6448.00
2023-05-24T09:24:14.002Z,6736.00
2023-05-24T09:26:14.067Z,6408.00
2023-05-24T09:27:14.112Z,6016.00
2023-05-24T09:28:14.431Z,5996.00
2023-05-24T09:31:14.270Z,6360.00
2023-05-24T09:32:14.371Z,6060.00
2023-05-24T09:33:14.445Z,5980.00
2023-05-24T09:34:14.614Z,6136.00
2023-05-24T09:35:14.342Z,6244.00
2023-05-24T09:36:14.367Z,6212.00
2023-05-24T09:38:14.528Z,5788.00
2023-05-24T09:39:14.630Z,5716.00
2023-05-24T09:40:14.791Z,5580.00
2023-05-24T09:41:14.522Z,5628.00
2023-05-24T09:43:14.577Z,5292.00
2023-05-24T09:44:14.620Z,5052.00
2023-05-24T09:45:14.640Z,5156.00
2023-05-24T09:46:14.731Z,5504.00
2023-05-24T09:47:15.063Z,5572.00
2023-05-24T09:48:14.844Z,5332.00
2023-05-24T09:49:14.762Z,5556.00
2023-05-24T09:50:14.882Z,6024.00
2023-05-24T09:51:14.856Z,6436.00
2023-05-24T09:52:14.857Z,6540.00
2023-05-24T09:53:14.888Z,6340.00
2023-05-24T09:54:15.165Z,6124.00
2023-05-24T09:55:14.965Z,6216.00
2023-05-24T09:56:14.976Z,6488.00
2023-05-24T09:57:15.001Z,6092.00
2023-05-24T09:58:15.046Z,5976.00
2023-05-24T09:59:15.068Z,6000.00
2023-05-24T10:00:15.132Z,6160.00
2023-05-24T10:01:15.464Z,6324.00
2023-05-24T10:02:15.160Z,6328.00
2023-05-24T10:03:15.388Z,6344.00
2023-05-24T10:04:15.414Z,6352.00
2023-05-24T10:05:15.357Z,6388.00
2023-05-24T10:06:15.281Z,6184.00
2023-05-24T10:07:15.326Z,6292.00
2023-05-24T10:08:15.658Z,6548.00
2023-05-24T10:09:15.380Z,6808.00
2023-05-24T10:10:15.510Z,7060.00
2023-05-24T10:11:15.441Z,7072.00
2023-05-24T10:12:15.468Z,6900.00
2023-05-24T10:13:15.509Z,6784.00
2023-05-24T10:14:15.528Z,6456.00
2023-05-24T10:15:15.880Z,6480.00
2023-05-24T10:16:15.618Z,6676.00
2023-05-24T10:17:15.696Z,7000.00
2023-05-24T10:18:15.682Z,7076.00
2023-05-24T10:19:15.778Z,6936.00
2023-05-24T10:20:15.927Z,6792.00
2023-05-24T10:21:15.778Z,6716.00
2023-05-24T10:22:16.041Z,6368.00
2023-05-24T10:23:15.810Z,6392.00
2023-05-24T10:24:15.834Z,6268.00
2023-05-24T10:26:15.917Z,5972.00
2023-05-24T10:27:15.926Z,5912.00
2023-05-24T10:28:15.969Z,5672.00
2023-05-24T10:29:16.290Z,5292.00
2023-05-24T10:30:16.056Z,5104.00
2023-05-24T10:31:16.163Z,5612.00
2023-05-24T10:32:16.081Z,6220.00
2023-05-24T10:33:16.249Z,6996.00
2023-05-24T10:34:16.822Z,7540.00
2023-05-24T10:35:16.308Z,7972.00
2023-05-24T10:36:16.704Z,7612.00
2023-05-24T10:37:16.392Z,7048.00
2023-05-24T10:38:16.274Z,6748.00
2023-05-24T10:39:16.296Z,6536.00
2023-05-24T10:40:16.321Z,6088.00
2023-05-24T10:41:16.462Z,5780.00
2023-05-24T10:42:16.391Z,5700.00
2023-05-24T10:43:16.727Z,5592.00
2023-05-24T10:44:16.457Z,5180.00
2023-05-24T10:45:16.484Z,5048.00
2023-05-24T10:46:16.533Z,5048.00
2023-05-24T10:47:16.560Z,5312.00
2023-05-24T10:48:16.650Z,5868.00
2023-05-24T10:49:16.604Z,6432.00
2023-05-24T10:50:16.947Z,6908.00
2023-05-24T10:52:16.714Z,7016.00
2023-05-24T10:53:16.731Z,6808.00
2023-05-24T10:54:16.762Z,6812.00
2023-05-24T10:55:16.786Z,6992.00
2023-05-24T10:56:16.824Z,7172.00
2023-05-24T10:57:17.152Z,7488.00
2023-05-24T10:58:16.884Z,7552.00
2023-05-24T10:59:16.916Z,7492.00
2023-05-24T11:00:26.764Z,7528.00
2023-05-24T11:01:17.009Z,7576.00
2023-05-24T11:02:17.244Z,7544.00
2023-05-24T11:03:17.107Z,7272.00
2023-05-24T11:04:17.397Z,6764.00
2023-05-24T11:05:17.163Z,6576.00
2023-05-24T11:06:17.134Z,6728.00
2023-05-24T11:07:17.174Z,6856.00
2023-05-24T11:08:17.389Z,6804.00
2023-05-24T11:09:17.256Z,6780.00
2023-05-24T11:10:17.504Z,7028.00
2023-05-24T11:11:24.515Z,7120.00
2023-05-24T11:12:17.422Z,7124.00
2023-05-24T11:13:17.356Z,6956.00
2023-05-24T11:14:17.386Z,6816.00
2023-05-24T11:15:17.417Z,6608.00
2023-05-24T11:16:17.778Z,6236.00
2023-05-24T11:17:17.478Z,5956.00
2023-05-24T11:18:17.593Z,5600.00
2023-05-24T11:19:17.554Z,5188.00
2023-05-24T11:21:17.600Z,4828.00
2023-05-24T11:22:17.941Z,4804.00
2023-05-24T11:23:17.671Z,5144.00
2023-05-24T11:24:17.733Z,5352.00
2023-05-24T11:25:17.740Z,5628.00
2023-05-24T11:26:17.762Z,6120.00
2023-05-24T11:27:17.780Z,6708.00
2023-05-24T11:28:17.905Z,7084.00
2023-05-24T11:29:18.193Z,7468.00
2023-05-24T11:30:17.881Z,6988.00
2023-05-24T11:31:17.913Z,6136.00
2023-05-24T11:32:18.162Z,5288.00
2023-05-24T11:33:17.984Z,4256.00
2023-05-24T11:34:18.003Z,3376.00
2023-05-24T11:35:18.031Z,3000.00
2023-05-24T11:36:18.376Z,3016.00
2023-05-24T11:37:18.848Z,3148.00
2023-05-24T11:38:18.130Z,3208.00
2023-05-24T11:40:18.211Z,3156.00
2023-05-24T11:41:18.228Z,2976.00
2023-05-24T11:42:18.251Z,2828.00
2023-05-24T11:43:18.531Z,2692.00
2023-05-24T11:44:18.310Z,2580.00
2023-05-24T11:45:18.349Z,2520.00
2023-05-24T11:46:18.428Z,2488.00
2023-05-24T11:47:18.404Z,2464.00
2023-05-24T11:48:18.436Z,2428.00
2023-05-24T11:49:18.476Z,2424.00
2023-05-24T11:50:18.800Z,2444.00
2023-05-24T11:51:18.530Z,2440.00
2023-05-24T11:52:18.565Z,2352.00
2023-05-24T11:53:18.596Z,2196.00
2023-05-24T11:54:18.625Z,2132.00
2023-05-24T11:55:18.661Z,2172.00
2023-05-24T11:56:19.118Z,2200.00
2023-05-24T11:57:19.030Z,2232.00
2023-05-24T11:58:18.754Z,2236.00
2023-05-24T11:59:18.776Z,2228.00
2023-05-24T12:00:18.819Z,2276.00
2023-05-24T12:01:18.844Z,2392.00
2023-05-24T12:02:18.888Z,2532.00
2023-05-24T12:04:19.518Z,2716.00
2023-05-24T12:05:18.978Z,2800.00
2023-05-24T12:09:19.391Z,3712.00
2023-05-24T12:10:20.372Z,4040.00
2023-05-24T12:11:19.476Z,4432.00
2023-05-24T12:12:24.343Z,4632.00
2023-05-24T12:13:19.215Z,4624.00
2023-05-24T12:14:19.257Z,4352.00
2023-05-24T12:15:19.270Z,4144.00
2023-05-24T12:16:19.343Z,4020.00
2023-05-24T12:17:19.362Z,3976.00
2023-05-24T12:18:19.968Z,4012.00
2023-05-24T12:19:31.552Z,4268.00
2023-05-24T12:20:19.505Z,4588.00
2023-05-24T12:21:19.548Z,4716.00
2023-05-24T12:22:19.531Z,4704.00
2023-05-24T12:23:19.519Z,4724.00
2023-05-24T12:24:19.544Z,4824.00
2023-05-24T12:25:19.927Z,4836.00
2023-05-24T12:26:19.606Z,4824.00
2023-05-24T12:27:19.639Z,4812.00
2023-05-24T12:28:19.765Z,4804.00
2023-05-24T12:29:19.703Z,4888.00
2023-05-24T12:30:19.770Z,5048.00
2023-05-24T12:31:19.810Z,5292.00
2023-05-24T12:32:20.172Z,5428.00
2023-05-24T12:33:19.823Z,5560.00
2023-05-24T12:34:19.861Z,5828.00
2023-05-24T12:35:19.905Z,6344.00
2023-05-24T12:36:19.918Z,6752.00
2023-05-24T12:37:19.967Z,7080.00
2023-05-24T12:38:20.032Z,7504.00
2023-05-24T12:39:20.309Z,7100.00
2023-05-24T12:40:20.042Z,6676.00
2023-05-24T12:41:20.073Z,6372.00
2023-05-24T12:43:20.128Z,5712.00
2023-05-24T12:44:20.299Z,5416.00
2023-05-24T12:45:20.188Z,5252.00
2023-05-24T12:46:20.610Z,5624.00
2023-05-24T12:47:20.342Z,5920.00
2023-05-24T12:48:20.314Z,6568.00
2023-05-24T12:49:20.323Z,7032.00
2023-05-24T12:50:20.351Z,7736.00
2023-05-24T12:51:20.387Z,8384.00
2023-05-24T12:52:20.414Z,8724.00
2023-05-24T12:53:20.686Z,8812.00
2023-05-24T12:54:20.572Z,8868.00
2023-05-24T12:55:20.508Z,8968.00
2023-05-24T12:56:20.571Z,9056.00
2023-05-24T12:57:20.613Z,8932.00
2023-05-24T12:58:20.622Z,8504.00
2023-05-24T12:59:20.935Z,7716.00
2023-05-24T13:00:20.700Z,7168.00
2023-05-24T13:01:20.729Z,6760.00
2023-05-24T13:02:20.731Z,6088.00
2023-05-24T13:04:20.783Z,5672.00
2023-05-24T13:05:20.840Z,5896.00
2023-05-24T13:06:21.094Z,6212.00
2023-05-24T13:07:20.981Z,6540.00
2023-05-24T13:08:20.935Z,6872.00
2023-05-24T13:09:20.981Z,7128.00
2023-05-24T13:11:21.001Z,7716.00
2023-05-24T13:12:21.337Z,7468.00
2023-05-24T13:13:21.065Z,7304.00
2023-05-24T13:15:21.135Z,7056.00
2023-05-24T13:16:21.252Z,6916.00
2023-05-24T13:17:21.358Z,6396.00
2023-05-24T13:18:21.515Z,5752.00
2023-05-24T13:19:21.255Z,5280.00
2023-05-24T13:20:21.331Z,4932.00
2023-05-24T13:21:21.318Z,4772.00
2023-05-24T13:22:21.354Z,4736.00
2023-05-24T13:23:21.398Z,4760.00
2023-05-24T13:24:21.720Z,4868.00
2023-05-24T13:27:21.514Z,4664.00
2023-05-24T13:28:21.540Z,4892.00
2023-05-24T13:29:32.080Z,5432.00
2023-05-24T13:30:21.604Z,6224.00
2023-05-24T13:31:21.651Z,6768.00
2023-05-24T13:32:21.746Z,6632.00
2023-05-24T13:33:21.999Z,6056.00
2023-05-24T13:34:21.721Z,5624.00
2023-05-24T13:35:21.831Z,5176.00
2023-05-24T13:36:21.802Z,5092.00
2023-05-24T13:37:21.825Z,5332.00
2023-05-24T13:38:21.857Z,5756.00